Hartford, Connecticut
Traffic Map
Current Weather Conditions
Hartford, Connecticut
Clear
Clear
17°
Feels Like: 17°
Wind Chill: 17° Ceiling: Unl
Heat Index: 17° Visibility: 10mi
Dew Point: 12° Wind: 7mph
Humidity: 72% Direction: 180° (S)
Pressure: 30.24in Gusts: 0mph
Raw Report DataKHFD 201853Z 18006KT 10SM CLR 17/12 A3024 RMK AO2 SLP240 T01670117
Traffic Incident Summary
Active as of:
Severity:
Category:
InformationThere was an issue retrieving the traffic information for this location. Please try a different location or try again shortly.
Advertisements